Terminal Aerodrome Forecast
Issued by NWS Mt. Holly, NJ

Home | Current Version | Previous Version | Text Only | Print | Product List | Glossary On
Versions: 1 2 3 4 5 6 7 8 9 10 11 12 13 14 15 16 17 18 19 20 21 22 23 24 25 26 27
000
FTUS41 KPHI 060916 AAB
TAFPHL
TAF AMD
KPHL 060916Z 0609/0712 10004KT P6SM VCSH FEW011 BKN080
     FM061200 12006KT P6SM VCSH BKN080
     FM061800 13008KT P6SM VCSH BKN050 PROB30 0620/0623 3SM TSRA
      OVC040CB
     FM070000 14006KT P6SM SCT050 BKN150
     FM070700 16005KT 4SM BR SCT008 BKN150=

USA.gov is the U.S. government's official web portal to all federal, state and local government web resources and services.